sensor_id;sensor_type;location;lat;lon;timestamp;temperature;humidity
33007;DHT22;19361;51.598;7.650;2023-11-21T00:01:44;11.50;73.40
33007;DHT22;19361;51.598;7.650;2023-11-21T00:06:45;11.50;73.30
33007;DHT22;19361;51.598;7.650;2023-11-21T00:11:47;11.50;73.40
33007;DHT22;19361;51.598;7.650;2023-11-21T00:16:48;11.50;73.50
33007;DHT22;19361;51.598;7.650;2023-11-21T00:21:48;11.40;73.60
33007;DHT22;19361;51.598;7.650;2023-11-21T00:26:49;11.50;73.70
33007;DHT22;19361;51.598;7.650;2023-11-21T00:31:50;11.40;73.70
33007;DHT22;19361;51.598;7.650;2023-11-21T00:36:50;11.50;73.90
33007;DHT22;19361;51.598;7.650;2023-11-21T00:41:52;11.40;74.00
33007;DHT22;19361;51.598;7.650;2023-11-21T00:46:53;11.40;74.00
33007;DHT22;19361;51.598;7.650;2023-11-21T00:51:55;11.50;74.10
33007;DHT22;19361;51.598;7.650;2023-11-21T00:56:58;11.50;73.90
33007;DHT22;19361;51.598;7.650;2023-11-21T01:01:59;11.50;73.90
33007;DHT22;19361;51.598;7.650;2023-11-21T01:07:02;11.40;73.90
33007;DHT22;19361;51.598;7.650;2023-11-21T01:12:03;11.40;74.00
33007;DHT22;19361;51.598;7.650;2023-11-21T01:17:04;11.50;73.90
33007;DHT22;19361;51.598;7.650;2023-11-21T01:22:05;11.40;73.90
33007;DHT22;19361;51.598;7.650;2023-11-21T01:27:06;11.50;73.90
33007;DHT22;19361;51.598;7.650;2023-11-21T01:32:07;11.40;73.70
33007;DHT22;19361;51.598;7.650;2023-11-21T01:37:08;11.40;73.80
33007;DHT22;19361;51.598;7.650;2023-11-21T01:42:12;11.40;73.80
33007;DHT22;19361;51.598;7.650;2023-11-21T01:47:13;11.30;73.80
33007;DHT22;19361;51.598;7.650;2023-11-21T01:52:14;11.30;73.80
33007;DHT22;19361;51.598;7.650;2023-11-21T01:57:15;11.30;73.80
33007;DHT22;19361;51.598;7.650;2023-11-21T02:02:16;11.20;73.80
33007;DHT22;19361;51.598;7.650;2023-11-21T02:07:17;11.20;73.90
33007;DHT22;19361;51.598;7.650;2023-11-21T02:12:19;11.20;73.90
33007;DHT22;19361;51.598;7.650;2023-11-21T02:17:20;11.20;73.80
33007;DHT22;19361;51.598;7.650;2023-11-21T02:22:21;11.10;73.80
33007;DHT22;19361;51.598;7.650;2023-11-21T02:27:23;11.10;73.80
33007;DHT22;19361;51.598;7.650;2023-11-21T02:32:24;11.00;73.70
33007;DHT22;19361;51.598;7.650;2023-11-21T02:37:26;11.00;73.90
33007;DHT22;19361;51.598;7.650;2023-11-21T02:42:27;11.00;73.90
33007;DHT22;19361;51.598;7.650;2023-11-21T02:47:28;11.00;74.00
33007;DHT22;19361;51.598;7.650;2023-11-21T02:52:29;11.00;74.00
33007;DHT22;19361;51.598;7.650;2023-11-21T02:57:30;10.90;73.90
33007;DHT22;19361;51.598;7.650;2023-11-21T03:02:30;10.90;73.90
33007;DHT22;19361;51.598;7.650;2023-11-21T03:07:31;10.90;74.00
33007;DHT22;19361;51.598;7.650;2023-11-21T03:12:32;10.90;74.10
33007;DHT22;19361;51.598;7.650;2023-11-21T03:17:33;10.90;74.20
33007;DHT22;19361;51.598;7.650;2023-11-21T03:22:37;10.90;74.30
33007;DHT22;19361;51.598;7.650;2023-11-21T03:27:38;10.90;74.30
33007;DHT22;19361;51.598;7.650;2023-11-21T03:32:39;10.90;74.40
33007;DHT22;19361;51.598;7.650;2023-11-21T03:37:40;10.90;74.30
33007;DHT22;19361;51.598;7.650;2023-11-21T03:42:41;10.90;74.30
33007;DHT22;19361;51.598;7.650;2023-11-21T03:47:42;10.90;74.30
33007;DHT22;19361;51.598;7.650;2023-11-21T03:52:43;10.90;74.30
33007;DHT22;19361;51.598;7.650;2023-11-21T03:57:44;10.90;74.30
33007;DHT22;19361;51.598;7.650;2023-11-21T04:02:45;10.90;74.40
33007;DHT22;19361;51.598;7.650;2023-11-21T04:07:46;10.90;74.30
33007;DHT22;19361;51.598;7.650;2023-11-21T04:12:47;10.80;74.30
33007;DHT22;19361;51.598;7.650;2023-11-21T04:17:48;10.80;74.40
33007;DHT22;19361;51.598;7.650;2023-11-21T04:22:49;10.80;74.50
33007;DHT22;19361;51.598;7.650;2023-11-21T04:27:50;10.80;74.50
33007;DHT22;19361;51.598;7.650;2023-11-21T04:32:50;10.80;74.50
33007;DHT22;19361;51.598;7.650;2023-11-21T04:37:51;10.90;74.60
33007;DHT22;19361;51.598;7.650;2023-11-21T04:42:52;10.90;74.70
33007;DHT22;19361;51.598;7.650;2023-11-21T04:47:52;10.90;74.80
33007;DHT22;19361;51.598;7.650;2023-11-21T04:52:53;10.90;74.80
33007;DHT22;19361;51.598;7.650;2023-11-21T04:57:54;11.00;74.90
33007;DHT22;19361;51.598;7.650;2023-11-21T05:02:55;11.00;74.90
33007;DHT22;19361;51.598;7.650;2023-11-21T05:07:56;11.00;74.80
33007;DHT22;19361;51.598;7.650;2023-11-21T05:12:56;11.00;74.60
33007;DHT22;19361;51.598;7.650;2023-11-21T05:17:57;11.00;74.50
33007;DHT22;19361;51.598;7.650;2023-11-21T05:23:00;11.00;74.60
33007;DHT22;19361;51.598;7.650;2023-11-21T05:28:01;10.90;74.60
33007;DHT22;19361;51.598;7.650;2023-11-21T05:33:03;10.90;74.70
33007;DHT22;19361;51.598;7.650;2023-11-21T05:38:03;10.90;74.70
33007;DHT22;19361;51.598;7.650;2023-11-21T05:43:06;10.90;74.80
33007;DHT22;19361;51.598;7.650;2023-11-21T05:48:07;10.90;74.80
33007;DHT22;19361;51.598;7.650;2023-11-21T05:53:08;10.90;74.90
33007;DHT22;19361;51.598;7.650;2023-11-21T05:58:10;10.90;75.00
33007;DHT22;19361;51.598;7.650;2023-11-21T06:03:11;10.90;75.00
33007;DHT22;19361;51.598;7.650;2023-11-21T06:08:12;11.00;75.00
33007;DHT22;19361;51.598;7.650;2023-11-21T06:13:13;11.00;75.00
33007;DHT22;19361;51.598;7.650;2023-11-21T06:18:14;11.00;75.10
33007;DHT22;19361;51.598;7.650;2023-11-21T06:23:15;11.00;75.00
33007;DHT22;19361;51.598;7.650;2023-11-21T06:28:16;11.00;75.00
33007;DHT22;19361;51.598;7.650;2023-11-21T06:33:18;11.00;75.00
33007;DHT22;19361;51.598;7.650;2023-11-21T06:38:19;11.00;75.20
33007;DHT22;19361;51.598;7.650;2023-11-21T06:43:20;11.00;75.30
33007;DHT22;19361;51.598;7.650;2023-11-21T06:48:22;11.10;75.30
33007;DHT22;19361;51.598;7.650;2023-11-21T06:53:23;11.10;75.40
33007;DHT22;19361;51.598;7.650;2023-11-21T06:58:25;11.10;75.40
33007;DHT22;19361;51.598;7.650;2023-11-21T07:03:25;11.10;75.40
33007;DHT22;19361;51.598;7.650;2023-11-21T07:08:26;11.20;75.50
33007;DHT22;19361;51.598;7.650;2023-11-21T07:13:27;11.20;75.70
33007;DHT22;19361;51.598;7.650;2023-11-21T07:18:27;11.30;75.90
33007;DHT22;19361;51.598;7.650;2023-11-21T07:23:28;11.30;75.90
33007;DHT22;19361;51.598;7.650;2023-11-21T07:28:29;11.30;75.90
33007;DHT22;19361;51.598;7.650;2023-11-21T07:33:30;11.40;76.00
33007;DHT22;19361;51.598;7.650;2023-11-21T07:38:31;11.40;75.90
33007;DHT22;19361;51.598;7.650;2023-11-21T07:43:35;11.40;75.60
33007;DHT22;19361;51.598;7.650;2023-11-21T07:48:35;11.50;75.70
33007;DHT22;19361;51.598;7.650;2023-11-21T07:53:36;11.50;75.70
33007;DHT22;19361;51.598;7.650;2023-11-21T07:58:38;11.50;75.80
33007;DHT22;19361;51.598;7.650;2023-11-21T08:03:39;11.50;75.70
33007;DHT22;19361;51.598;7.650;2023-11-21T08:08:39;11.50;75.70
33007;DHT22;19361;51.598;7.650;2023-11-21T08:13:40;11.60;75.70
33007;DHT22;19361;51.598;7.650;2023-11-21T08:18:41;11.60;75.80
33007;DHT22;19361;51.598;7.650;2023-11-21T08:23:42;11.60;76.00
33007;DHT22;19361;51.598;7.650;2023-11-21T08:28:43;11.60;76.00
33007;DHT22;19361;51.598;7.650;2023-11-21T08:33:43;11.70;75.90
33007;DHT22;19361;51.598;7.650;2023-11-21T08:38:44;11.70;75.80
33007;DHT22;19361;51.598;7.650;2023-11-21T08:43:45;11.80;75.90
33007;DHT22;19361;51.598;7.650;2023-11-21T08:48:45;11.80;75.90
33007;DHT22;19361;51.598;7.650;2023-11-21T08:53:46;11.80;75.70
33007;DHT22;19361;51.598;7.650;2023-11-21T08:58:47;11.80;75.80
33007;DHT22;19361;51.598;7.650;2023-11-21T09:03:48;11.80;75.70
33007;DHT22;19361;51.598;7.650;2023-11-21T09:08:50;11.90;75.70
33007;DHT22;19361;51.598;7.650;2023-11-21T09:13:51;11.90;75.70
33007;DHT22;19361;51.598;7.650;2023-11-21T09:18:52;11.90;75.70
33007;DHT22;19361;51.598;7.650;2023-11-21T09:23:52;12.00;75.50
33007;DHT22;19361;51.598;7.650;2023-11-21T09:28:54;12.00;75.50
33007;DHT22;19361;51.598;7.650;2023-11-21T09:33:56;12.00;75.50
33007;DHT22;19361;51.598;7.650;2023-11-21T09:38:57;12.00;75.40
33007;DHT22;19361;51.598;7.650;2023-11-21T09:43:58;12.10;75.40
33007;DHT22;19361;51.598;7.650;2023-11-21T09:49:02;12.10;75.30
33007;DHT22;19361;51.598;7.650;2023-11-21T09:54:06;12.10;75.30
33007;DHT22;19361;51.598;7.650;2023-11-21T09:59:10;12.10;75.40
33007;DHT22;19361;51.598;7.650;2023-11-21T10:04:13;12.10;75.40
33007;DHT22;19361;51.598;7.650;2023-11-21T10:09:15;12.20;75.30
33007;DHT22;19361;51.598;7.650;2023-11-21T10:14:18;12.10;75.40
33007;DHT22;19361;51.598;7.650;2023-11-21T10:19:19;12.20;75.60
33007;DHT22;19361;51.598;7.650;2023-11-21T10:24:21;12.20;75.70
33007;DHT22;19361;51.598;7.650;2023-11-21T10:29:22;12.20;75.70
33007;DHT22;19361;51.598;7.650;2023-11-21T10:34:23;12.20;75.70
33007;DHT22;19361;51.598;7.650;2023-11-21T10:39:24;12.30;75.80
33007;DHT22;19361;51.598;7.650;2023-11-21T10:44:31;12.30;75.80
33007;DHT22;19361;51.598;7.650;2023-11-21T10:49:32;12.30;75.90
33007;DHT22;19361;51.598;7.650;2023-11-21T10:54:33;12.30;75.90
33007;DHT22;19361;51.598;7.650;2023-11-21T10:59:33;12.40;75.80
33007;DHT22;19361;51.598;7.650;2023-11-21T11:04:35;12.30;75.60
33007;DHT22;19361;51.598;7.650;2023-11-21T11:09:38;12.40;75.90
33007;DHT22;19361;51.598;7.650;2023-11-21T11:14:41;12.30;75.80
33007;DHT22;19361;51.598;7.650;2023-11-21T11:19:43;12.40;76.10
33007;DHT22;19361;51.598;7.650;2023-11-21T11:25:25;12.30;76.00
33007;DHT22;19361;51.598;7.650;2023-11-21T11:36:13;12.40;76.20
33007;DHT22;19361;51.598;7.650;2023-11-21T11:41:27;12.30;76.30
33007;DHT22;19361;51.598;7.650;2023-11-21T11:46:45;12.30;76.30
33007;DHT22;19361;51.598;7.650;2023-11-21T11:51:46;12.30;76.50
33007;DHT22;19361;51.598;7.650;2023-11-21T11:56:47;12.30;76.30
33007;DHT22;19361;51.598;7.650;2023-11-21T12:01:49;12.30;76.10
33007;DHT22;19361;51.598;7.650;2023-11-21T12:06:53;12.40;76.10
33007;DHT22;19361;51.598;7.650;2023-11-21T12:11:56;12.40;76.20
33007;DHT22;19361;51.598;7.650;2023-11-21T12:16:57;12.30;76.20
33007;DHT22;19361;51.598;7.650;2023-11-21T12:21:59;12.40;76.20
33007;DHT22;19361;51.598;7.650;2023-11-21T12:26:59;12.40;76.00
33007;DHT22;19361;51.598;7.650;2023-11-21T12:32:00;12.30;76.00
33007;DHT22;19361;51.598;7.650;2023-11-21T12:37:01;12.30;76.10
33007;DHT22;19361;51.598;7.650;2023-11-21T12:42:02;12.30;76.10
33007;DHT22;19361;51.598;7.650;2023-11-21T12:47:03;12.30;75.90
33007;DHT22;19361;51.598;7.650;2023-11-21T12:52:06;12.30;75.90
33007;DHT22;19361;51.598;7.650;2023-11-21T12:57:06;12.30;76.00
33007;DHT22;19361;51.598;7.650;2023-11-21T13:02:08;12.40;75.90
33007;DHT22;19361;51.598;7.650;2023-11-21T13:07:09;12.40;75.70
33007;DHT22;19361;51.598;7.650;2023-11-21T13:12:15;12.30;75.60
33007;DHT22;19361;51.598;7.650;2023-11-21T13:17:18;12.30;75.40
33007;DHT22;19361;51.598;7.650;2023-11-21T13:22:19;12.30;75.90
33007;DHT22;19361;51.598;7.650;2023-11-21T13:27:21;12.30;75.40
33007;DHT22;19361;51.598;7.650;2023-11-21T13:32:21;12.30;75.50
33007;DHT22;19361;51.598;7.650;2023-11-21T13:37:22;12.20;75.50
33007;DHT22;19361;51.598;7.650;2023-11-21T13:42:25;12.20;75.70
33007;DHT22;19361;51.598;7.650;2023-11-21T13:47:28;12.20;75.80
33007;DHT22;19361;51.598;7.650;2023-11-21T13:52:31;12.10;75.70
33007;DHT22;19361;51.598;7.650;2023-11-21T13:57:34;12.10;75.80
33007;DHT22;19361;51.598;7.650;2023-11-21T14:02:34;12.10;75.70
33007;DHT22;19361;51.598;7.650;2023-11-21T14:07:39;12.00;76.20
33007;DHT22;19361;51.598;7.650;2023-11-21T14:12:48;12.00;75.70
33007;DHT22;19361;51.598;7.650;2023-11-21T14:17:48;12.00;75.80
33007;DHT22;19361;51.598;7.650;2023-11-21T14:22:49;11.90;75.70
33007;DHT22;19361;51.598;7.650;2023-11-21T14:27:51;11.90;75.70
33007;DHT22;19361;51.598;7.650;2023-11-21T14:32:51;11.80;75.40
33007;DHT22;19361;51.598;7.650;2023-11-21T14:37:52;11.80;75.30
33007;DHT22;19361;51.598;7.650;2023-11-21T14:42:53;11.80;75.20
33007;DHT22;19361;51.598;7.650;2023-11-21T14:47:57;11.80;75.20
33007;DHT22;19361;51.598;7.650;2023-11-21T14:53:16;11.80;74.90
33007;DHT22;19361;51.598;7.650;2023-11-21T14:58:23;11.70;74.60
33007;DHT22;19361;51.598;7.650;2023-11-21T15:03:28;11.70;74.60
33007;DHT22;19361;51.598;7.650;2023-11-21T15:08:32;11.60;74.60
33007;DHT22;19361;51.598;7.650;2023-11-21T15:13:32;11.50;74.50
33007;DHT22;19361;51.598;7.650;2023-11-21T15:18:34;11.50;74.50
33007;DHT22;19361;51.598;7.650;2023-11-21T15:23:35;11.40;74.00
33007;DHT22;19361;51.598;7.650;2023-11-21T15:28:36;11.40;73.60
33007;DHT22;19361;51.598;7.650;2023-11-21T15:33:37;11.30;73.40
33007;DHT22;19361;51.598;7.650;2023-11-21T15:38:37;11.30;73.30
33007;DHT22;19361;51.598;7.650;2023-11-21T15:43:39;11.20;73.00
33007;DHT22;19361;51.598;7.650;2023-11-21T15:48:39;11.10;72.90
33007;DHT22;19361;51.598;7.650;2023-11-21T15:53:44;11.10;72.10
33007;DHT22;19361;51.598;7.650;2023-11-21T15:58:45;11.00;72.00
33007;DHT22;19361;51.598;7.650;2023-11-21T16:03:47;11.00;72.00
33007;DHT22;19361;51.598;7.650;2023-11-21T16:08:48;11.00;71.50
33007;DHT22;19361;51.598;7.650;2023-11-21T16:13:49;10.90;72.40
33007;DHT22;19361;51.598;7.650;2023-11-21T16:18:50;10.90;71.50
33007;DHT22;19361;51.598;7.650;2023-11-21T16:23:51;10.90;71.40
33007;DHT22;19361;51.598;7.650;2023-11-21T16:28:51;10.90;71.70
33007;DHT22;19361;51.598;7.650;2023-11-21T16:33:52;10.80;72.30
33007;DHT22;19361;51.598;7.650;2023-11-21T16:38:53;10.80;71.70
33007;DHT22;19361;51.598;7.650;2023-11-21T16:43:54;10.70;71.80
33007;DHT22;19361;51.598;7.650;2023-11-21T16:48:55;10.70;72.00
33007;DHT22;19361;51.598;7.650;2023-11-21T16:53:56;10.70;72.20
33007;DHT22;19361;51.598;7.650;2023-11-21T16:58:56;10.70;72.20
33007;DHT22;19361;51.598;7.650;2023-11-21T17:03:57;10.60;71.90
33007;DHT22;19361;51.598;7.650;2023-11-21T17:09:02;10.60;71.50
33007;DHT22;19361;51.598;7.650;2023-11-21T17:14:06;10.60;70.90
33007;DHT22;19361;51.598;7.650;2023-11-21T17:19:07;10.50;70.90
33007;DHT22;19361;51.598;7.650;2023-11-21T17:24:09;10.50;70.90
33007;DHT22;19361;51.598;7.650;2023-11-21T17:29:10;10.40;70.90
33007;DHT22;19361;51.598;7.650;2023-11-21T17:34:11;10.40;70.90
33007;DHT22;19361;51.598;7.650;2023-11-21T17:39:12;10.40;70.80
33007;DHT22;19361;51.598;7.650;2023-11-21T17:44:13;10.40;70.90
33007;DHT22;19361;51.598;7.650;2023-11-21T17:49:14;10.40;70.90
33007;DHT22;19361;51.598;7.650;2023-11-21T17:54:14;10.30;70.20
33007;DHT22;19361;51.598;7.650;2023-11-21T17:59:15;10.30;70.70
33007;DHT22;19361;51.598;7.650;2023-11-21T18:04:16;10.30;70.90
33007;DHT22;19361;51.598;7.650;2023-11-21T18:09:17;10.30;70.90
33007;DHT22;19361;51.598;7.650;2023-11-21T18:14:19;10.30;70.90
33007;DHT22;19361;51.598;7.650;2023-11-21T18:19:20;10.30;70.90
33007;DHT22;19361;51.598;7.650;2023-11-21T18:24:21;10.30;70.60
33007;DHT22;19361;51.598;7.650;2023-11-21T18:29:21;10.30;70.40
33007;DHT22;19361;51.598;7.650;2023-11-21T18:34:22;10.30;70.60
33007;DHT22;19361;51.598;7.650;2023-11-21T18:39:24;10.30;70.70
33007;DHT22;19361;51.598;7.650;2023-11-21T18:44:25;10.30;70.80
33007;DHT22;19361;51.598;7.650;2023-11-21T18:49:26;10.20;70.70
33007;DHT22;19361;51.598;7.650;2023-11-21T18:54:26;10.20;70.90
33007;DHT22;19361;51.598;7.650;2023-11-21T18:59:28;10.20;70.90
33007;DHT22;19361;51.598;7.650;2023-11-21T19:04:29;10.20;71.10
33007;DHT22;19361;51.598;7.650;2023-11-21T19:09:30;10.10;71.00
33007;DHT22;19361;51.598;7.650;2023-11-21T19:14:32;10.10;71.10
33007;DHT22;19361;51.598;7.650;2023-11-21T19:19:32;10.10;71.10
33007;DHT22;19361;51.598;7.650;2023-11-21T19:24:33;10.10;71.10
33007;DHT22;19361;51.598;7.650;2023-11-21T19:29:34;10.10;71.20
33007;DHT22;19361;51.598;7.650;2023-11-21T19:34:35;10.10;71.20
33007;DHT22;19361;51.598;7.650;2023-11-21T19:39:37;10.10;71.20
33007;DHT22;19361;51.598;7.650;2023-11-21T19:44:38;10.10;71.00
33007;DHT22;19361;51.598;7.650;2023-11-21T19:49:41;10.10;70.80
33007;DHT22;19361;51.598;7.650;2023-11-21T19:54:42;10.10;70.60
33007;DHT22;19361;51.598;7.650;2023-11-21T19:59:43;10.00;70.50
33007;DHT22;19361;51.598;7.650;2023-11-21T20:04:45;10.10;70.60
33007;DHT22;19361;51.598;7.650;2023-11-21T20:09:46;10.00;70.20
33007;DHT22;19361;51.598;7.650;2023-11-21T20:14:49;10.00;70.20
33007;DHT22;19361;51.598;7.650;2023-11-21T20:19:50;10.00;70.00
33007;DHT22;19361;51.598;7.650;2023-11-21T20:24:51;10.00;70.10
33007;DHT22;19361;51.598;7.650;2023-11-21T20:29:52;10.00;70.10
33007;DHT22;19361;51.598;7.650;2023-11-21T20:34:52;10.00;70.10
33007;DHT22;19361;51.598;7.650;2023-11-21T20:39:53;10.00;70.50
33007;DHT22;19361;51.598;7.650;2023-11-21T20:44:55;9.90;70.40
33007;DHT22;19361;51.598;7.650;2023-11-21T20:49:56;9.90;70.50
33007;DHT22;19361;51.598;7.650;2023-11-21T20:54:59;9.90;70.60
33007;DHT22;19361;51.598;7.650;2023-11-21T21:00:00;9.90;70.70
33007;DHT22;19361;51.598;7.650;2023-11-21T21:05:03;9.90;70.70
33007;DHT22;19361;51.598;7.650;2023-11-21T21:10:07;9.80;70.60
33007;DHT22;19361;51.598;7.650;2023-11-21T21:15:10;9.80;70.60
33007;DHT22;19361;51.598;7.650;2023-11-21T21:20:11;9.80;70.80
33007;DHT22;19361;51.598;7.650;2023-11-21T21:25:15;9.80;70.80
33007;DHT22;19361;51.598;7.650;2023-11-21T21:30:16;9.80;70.80
33007;DHT22;19361;51.598;7.650;2023-11-21T21:35:16;9.80;70.70
33007;DHT22;19361;51.598;7.650;2023-11-21T21:40:17;9.80;70.80
33007;DHT22;19361;51.598;7.650;2023-11-21T21:45:18;9.70;70.80
33007;DHT22;19361;51.598;7.650;2023-11-21T21:50:19;9.70;70.80
33007;DHT22;19361;51.598;7.650;2023-11-21T21:55:19;9.70;70.40
33007;DHT22;19361;51.598;7.650;2023-11-21T22:00:20;9.70;70.40
33007;DHT22;19361;51.598;7.650;2023-11-21T22:05:23;9.70;70.30
33007;DHT22;19361;51.598;7.650;2023-11-21T22:10:25;9.60;70.20
33007;DHT22;19361;51.598;7.650;2023-11-21T22:15:26;9.60;69.80
33007;DHT22;19361;51.598;7.650;2023-11-21T22:20:27;9.60;69.50
33007;DHT22;19361;51.598;7.650;2023-11-21T22:25:28;9.60;69.80
33007;DHT22;19361;51.598;7.650;2023-11-21T22:30:29;9.50;70.00
33007;DHT22;19361;51.598;7.650;2023-11-21T22:35:29;9.50;70.00
33007;DHT22;19361;51.598;7.650;2023-11-21T22:40:30;9.50;69.80
33007;DHT22;19361;51.598;7.650;2023-11-21T22:45:31;9.50;69.70
33007;DHT22;19361;51.598;7.650;2023-11-21T22:50:32;9.50;69.60
33007;DHT22;19361;51.598;7.650;2023-11-21T22:55:33;9.50;69.50
33007;DHT22;19361;51.598;7.650;2023-11-21T23:00:33;9.40;69.50
33007;DHT22;19361;51.598;7.650;2023-11-21T23:05:37;9.40;69.90
33007;DHT22;19361;51.598;7.650;2023-11-21T23:10:37;9.40;69.40
33007;DHT22;19361;51.598;7.650;2023-11-21T23:15:39;9.30;69.50
33007;DHT22;19361;51.598;7.650;2023-11-21T23:20:42;9.30;69.40
33007;DHT22;19361;51.598;7.650;2023-11-21T23:25:43;9.30;69.50
33007;DHT22;19361;51.598;7.650;2023-11-21T23:30:44;9.30;69.40
33007;DHT22;19361;51.598;7.650;2023-11-21T23:35:45;9.30;69.60
33007;DHT22;19361;51.598;7.650;2023-11-21T23:40:46;9.20;69.70
33007;DHT22;19361;51.598;7.650;2023-11-21T23:45:47;9.20;69.80
33007;DHT22;19361;51.598;7.650;2023-11-21T23:50:48;9.20;69.80
33007;DHT22;19361;51.598;7.650;2023-11-21T23:55:48;9.20;70.00
